Time;durP1;ratioP1;P1;durP2;ratioP2;P2;SDS_P1;SDS_P2;PMS_P1;PMS_P2;Temp;Humidity;BMP_temperature;BMP_pressure;BME280_temperature;BME280_humidity;BME280_pressure;Samples;Min_cycle;Max_cycle;Signal;HPM_P1;HPM_P2
2021/08/29 00:01:03;;;;;;;;;;;;;;;22.08;72.04;100678.41;4943106;28;102110;-91
2021/08/29 00:03:31;;;;;;;;;;;;;;;22.06;72.16;100663.28;4945884;28;102146;-87
2021/08/29 00:05:57;;;;;;;;;;;;;;;22.07;72.32;100662.16;4941579;28;102710;-91
2021/08/29 00:08:24;;;;;;;;;;;;;;;22.07;72.23;100653.84;4944599;28;101951;-92
2021/08/29 00:10:50;;;;;;;;;;;;;;;22.07;72.27;100657.41;4945711;28;101952;-90
2021/08/29 00:13:19;;;;;;;;;;;;;;;22.07;72.44;100660.19;4946259;28;101976;-91
2021/08/29 00:15:45;;;;;;;;;;;;;;;22.08;72.08;100658.22;4943738;28;102558;-91
2021/08/29 00:18:11;;;;;;;;;;;;;;;22.07;71.84;100659.38;4942828;28;101983;-92
2021/08/29 00:20:39;;;;;;;;;;;;;;;22.07;72.01;100648.28;4945207;28;102105;-91
2021/08/29 00:23:05;;;;;;;;;;;;;;;22.07;72.31;100648.28;4943268;28;102097;-92
2021/08/29 00:25:31;;;;;;;;;;;;;;;22.06;72.32;100650.22;4941558;28;102737;-91
2021/08/29 00:27:58;;;;;;;;;;;;;;;22.06;72.21;100641.91;4943366;28;101982;-92
2021/08/29 00:30:24;;;;;;;;;;;;;;;22.06;72.36;100641.13;4942840;28;102027;-91
2021/08/29 00:32:52;;;;;;;;;;;;;;;22.06;72.23;100638.34;4942908;28;102240;-91
2021/08/29 00:35:18;;;;;;;;;;;;;;;22.06;72.02;100639.16;4942888;28;102765;-85
2021/08/29 00:37:46;;;;;;;;;;;;;;;22.06;72.26;100630.03;4942429;28;102371;-86
2021/08/29 00:40:14;;;;;;;;;;;;;;;22.06;72.26;100630.84;4940536;28;102089;-87
2021/08/29 00:42:40;;;;;;;;;;;;;;;22.06;72.21;100624.50;4942243;28;102192;-86
2021/08/29 00:45:07;;;;;;;;;;;;;;;22.05;71.91;100623.69;4940509;28;102706;-86
2021/08/29 00:47:34;;;;;;;;;;;;;;;22.06;72.21;100607.88;4939734;28;102366;-86
2021/08/29 00:50:02;;;;;;;;;;;;;;;22.05;72.08;100611.81;4943693;28;102174;-92
2021/08/29 00:52:28;;;;;;;;;;;;;;;22.05;71.99;100612.59;4937129;28;102204;-91
2021/08/29 00:54:56;;;;;;;;;;;;;;;22.05;71.94;100609.84;4940890;28;102404;-90
2021/08/29 00:57:22;;;;;;;;;;;;;;;22.06;72.19;100610.63;4940676;28;102043;-90
2021/08/29 00:59:49;;;;;;;;;;;;;;;22.05;72.24;100611.81;4941216;28;101993;-90
2021/08/29 01:02:18;;;;;;;;;;;;;;;22.05;72.03;100604.28;4942654;28;102178;-91
2021/08/29 01:04:49;;;;;;;;;;;;;;;22.05;72.18;100611.81;4941958;28;102035;-91
2021/08/29 01:07:21;;;;;;;;;;;;;;;22.05;72.18;100606.25;4940635;28;101963;-91
2021/08/29 01:09:50;;;;;;;;;;;;;;;22.04;71.95;100599.91;4941070;28;102058;-91
2021/08/29 01:12:18;;;;;;;;;;;;;;;22.05;71.92;100593.19;4942675;28;102071;-91
2021/08/29 01:14:55;;;;;;;;;;;;;;;22.05;72.13;100597.94;4943014;28;102754;-92
2021/08/29 01:17:25;;;;;;;;;;;;;;;22.04;nan;100594.38;4945141;28;102129;-90
2021/08/29 01:19:56;;;;;;;;;;;;;;;22.04;71.98;100594.38;4945127;28;102056;-90
2021/08/29 01:22:23;;;;;;;;;;;;;;;22.04;72.16;100586.06;4943413;28;102074;-90
2021/08/29 01:24:50;;;;;;;;;;;;;;;22.04;72.25;100576.94;4945348;28;102698;-90
2021/08/29 01:27:22;;;;;;;;;;;;;;;22.05;71.94;100581.31;4944541;28;101976;-90
2021/08/29 01:29:50;;;;;;;;;;;;;;;22.04;72.20;100577.75;4939572;28;102046;-90
2021/08/29 01:32:18;;;;;;;;;;;;;;;22.05;72.02;100570.22;4959922;28;102092;-91
2021/08/29 01:34:46;;;;;;;;;;;;;;;22.04;72.26;100569.44;4945742;28;102764;-90
2021/08/29 01:37:13;;;;;;;;;;;;;;;22.04;72.01;100579.72;4936237;28;102049;-91
2021/08/29 01:39:40;;;;;;;;;;;;;;;22.04;72.17;100566.66;4945489;28;102174;-90
2021/08/29 01:42:06;;;;;;;;;;;;;;;22.04;71.99;100560.31;4947201;28;102120;-90
2021/08/29 01:44:33;;;;;;;;;;;;;;;22.05;72.03;100556.38;4946017;28;102765;-92
2021/08/29 01:47:01;;;;;;;;;;;;;;;22.03;72.01;100559.50;4944119;28;102418;-90
2021/08/29 01:49:28;;;;;;;;;;;;;;;22.05;72.26;100564.69;4943603;28;102079;-87
2021/08/29 01:51:55;;;;;;;;;;;;;;;22.04;72.32;100563.09;4946972;28;102066;-87
2021/08/29 01:54:21;;;;;;;;;;;;;;;22.04;72.20;100554.78;4943526;28;102495;-87
2021/08/29 01:57:00;;;;;;;;;;;;;;;22.04;71.90;100550.03;4944958;28;102096;-87
2021/08/29 01:59:27;;;;;;;;;;;;;;;22.04;72.08;100552.81;4956058;28;102204;-87
2021/08/29 02:01:54;;;;;;;;;;;;;;;22.04;72.17;100557.53;4960076;28;102217;-86
2021/08/29 02:04:22;;;;;;;;;;;;;;;22.04;71.95;100558.34;4943928;28;102771;-87
2021/08/29 02:06:52;;;;;;;;;;;;;;;22.03;72.25;100559.50;4936612;28;102061;-86
2021/08/29 02:09:19;;;;;;;;;;;;;;;22.04;72.08;100549.22;4943308;28;102157;-86
2021/08/29 02:11:49;;;;;;;;;;;;;;;22.05;72.29;100548.06;4950755;28;102160;-86
2021/08/29 02:14:31;;;;;;;;;;;;;;;22.03;71.98;100548.44;4942806;28;102782;-87
2021/08/29 02:16:58;;;;;;;;;;;;;;;22.04;72.17;100541.72;4936576;28;102146;-87
2021/08/29 02:19:27;;;;;;;;;;;;;;;22.03;72.08;100542.06;4938704;28;102125;-87
2021/08/29 02:21:54;;;;;;;;;;;;;;;22.04;72.17;100547.25;4945943;28;102173;-86
2021/08/29 02:24:21;;;;;;;;;;;;;;;22.03;72.02;100542.06;4944271;28;102767;-87
2021/08/29 02:26:48;;;;;;;;;;;;;;;22.04;72.26;100538.16;4946257;28;101953;-87
2021/08/29 02:29:14;;;;;;;;;;;;;;;22.04;72.26;100538.16;4938073;28;102218;-86
2021/08/29 02:31:42;;;;;;;;;;;;;;;22.04;72.26;100547.25;4947673;28;102171;-87
2021/08/29 02:34:09;;;;;;;;;;;;;;;22.05;72.09;100545.28;4941417;28;102398;-87
2021/08/29 02:36:37;;;;;;;;;;;;;;;22.03;72.28;100542.88;4944560;28;102246;-87
2021/08/29 02:39:04;;;;;;;;;;;;;;;22.04;72.16;100538.16;4942665;28;102151;-90
2021/08/29 02:41:31;;;;;;;;;;;;;;;22.04;72.18;100538.94;4945248;28;102150;-90
2021/08/29 02:43:58;;;;;;;;;;;;;;;22.04;72.29;100535.38;4941953;28;102193;-90
2021/08/29 02:46:25;;;;;;;;;;;;;;;22.04;72.09;100538.16;4936428;28;102089;-91
2021/08/29 02:48:51;;;;;;;;;;;;;;;22.04;72.45;100538.16;4944482;28;101979;-91
2021/08/29 02:51:18;;;;;;;;;;;;;;;22.04;72.27;100538.16;4949400;28;102069;-90
2021/08/29 02:53:46;;;;;;;;;;;;;;;22.04;72.14;100532.59;4943666;28;102716;-91
2021/08/29 02:56:13;;;;;;;;;;;;;;;22.04;72.15;100538.16;4936129;28;102134;-90
2021/08/29 02:58:40;;;;;;;;;;;;;;;22.05;72.39;100539.75;4958686;28;102383;-91
2021/08/29 03:01:06;;;;;;;;;;;;;;;22.04;72.20;100544.50;4952686;28;102150;-91
2021/08/29 03:03:34;;;;;;;;;;;;;;;22.04;72.10;100535.38;4951079;28;102705;-91
2021/08/29 03:06:00;;;;;;;;;;;;;;;22.04;72.40;100543.69;4947837;28;102143;-91
2021/08/29 03:08:27;;;;;;;;;;;;;;;22.04;72.42;100532.59;4941639;28;102249;-91
2021/08/29 03:10:56;;;;;;;;;;;;;;;22.04;72.49;100544.50;4935959;28;102327;-92
2021/08/29 03:13:23;;;;;;;;;;;;;;;22.05;72.35;100539.75;4932223;28;102800;-91
2021/08/29 03:15:49;;;;;;;;;;;;;;;22.05;72.44;100534.22;4935991;28;102037;-91
2021/08/29 03:18:16;;;;;;;;;;;;;;;22.05;72.55;100542.53;4938409;28;101819;-90
2021/08/29 03:20:42;;;;;;;;;;;;;;;22.05;72.29;100539.75;4945718;28;102078;-90
2021/08/29 03:23:08;;;;;;;;;;;;;;;22.06;72.18;100535.81;4937453;28;102736;-90
2021/08/29 03:25:35;;;;;;;;;;;;;;;22.04;72.24;100533.41;4941979;28;102122;-87
2021/08/29 03:28:03;;;;;;;;;;;;;;;22.05;72.42;100534.22;4933738;28;102310;-87
2021/08/29 03:30:30;;;;;;;;;;;;;;;22.05;72.35;100534.22;4933686;28;103209;-87
2021/08/29 03:32:57;;;;;;;;;;;;;;;22.05;72.55;100536.97;4935008;28;102723;-87
2021/08/29 03:35:24;;;;;;;;;;;;;;;22.05;72.50;100540.56;4932194;28;102111;-87
2021/08/29 03:37:51;;;;;;;;;;;;;;;22.06;72.52;100521.97;4932267;28;102251;-87
2021/08/29 03:40:17;;;;;;;;;;;;;;;22.06;72.57;100524.72;4938932;28;102134;-92
2021/08/29 03:42:44;;;;;;;;;;;;;;;22.05;72.32;100528.66;4932222;28;102589;-86
2021/08/29 03:45:12;;;;;;;;;;;;;;;22.06;72.48;100530.28;4932269;28;102015;-86
2021/08/29 03:47:38;;;;;;;;;;;;;;;22.05;72.36;100523.13;4950656;28;102175;-90
2021/08/29 03:50:05;;;;;;;;;;;;;;;22.05;72.53;100523.13;4933251;28;102103;-86
2021/08/29 03:52:32;;;;;;;;;;;;;;;22.05;72.61;100523.13;4930984;28;102740;-88
2021/08/29 03:54:58;;;;;;;;;;;;;;;22.06;72.28;100521.97;4929872;28;102168;-91
2021/08/29 03:57:25;;;;;;;;;;;;;;;22.06;72.54;100513.63;4932645;28;102173;-87
2021/08/29 03:59:51;;;;;;;;;;;;;;;22.07;72.51;100509.72;4933349;28;102851;-90
2021/08/29 04:02:19;;;;;;;;;;;;;;;22.06;72.37;100502.56;4935787;28;102769;-86
2021/08/29 04:04:45;;;;;;;;;;;;;;;22.06;72.23;100491.47;4938427;28;102186;-86
2021/08/29 04:07:14;;;;;;;;;;;;;;;22.05;72.47;100490.66;4949816;28;102150;-86
2021/08/29 04:09:41;;;;;;;;;;;;;;;22.05;72.53;100484.31;4935012;28;102217;-87
2021/08/29 04:12:09;;;;;;;;;;;;;;;22.04;72.38;100494.63;4934700;28;102702;-86
2021/08/29 04:14:37;;;;;;;;;;;;;;;22.05;72.28;100492.63;4933544;28;102127;-86
2021/08/29 04:17:03;;;;;;;;;;;;;;;22.05;72.47;100489.88;4932458;28;102390;-86
2021/08/29 04:19:31;;;;;;;;;;;;;;;22.05;72.42;100487.91;4936573;28;102154;-86
2021/08/29 04:21:58;;;;;;;;;;;;;;;22.05;72.54;100481.56;4955346;28;102166;-87
2021/08/29 04:24:25;;;;;;;;;;;;;;;22.05;72.44;100476.81;4941111;28;102178;-86
2021/08/29 04:26:52;;;;;;;;;;;;;;;22.05;72.37;100479.59;4943319;28;102135;-86
2021/08/29 04:29:19;;;;;;;;;;;;;;;22.05;72.34;100473.25;4943408;28;102116;-87
2021/08/29 04:31:48;;;;;;;;;;;;;;;22.05;72.61;100476.00;4940471;28;102728;-86
2021/08/29 04:34:14;;;;;;;;;;;;;;;22.05;72.32;100476.00;4940860;28;102048;-86
2021/08/29 04:36:42;;;;;;;;;;;;;;;22.05;72.39;100476.00;4955023;28;102086;-86
2021/08/29 04:39:09;;;;;;;;;;;;;;;22.05;72.41;100479.59;4941313;28;102162;-86
2021/08/29 04:41:36;;;;;;;;;;;;;;;22.06;72.24;100474.84;4956561;28;102403;-91
2021/08/29 04:44:02;;;;;;;;;;;;;;;22.06;72.39;100469.31;4942146;28;102012;-91
2021/08/29 04:46:29;;;;;;;;;;;;;;;22.05;72.38;100473.25;4939840;28;102121;-91
2021/08/29 04:48:55;;;;;;;;;;;;;;;22.05;72.43;100467.69;4935840;28;102120;-90
2021/08/29 04:51:21;;;;;;;;;;;;;;;22.06;72.36;100472.88;4939701;28;102740;-91
2021/08/29 04:53:49;;;;;;;;;;;;;;;22.07;72.40;100465.41;4939965;28;102016;-91
2021/08/29 04:56:15;;;;;;;;;;;;;;;22.06;72.52;100455.44;4940781;28;102150;-92
2021/08/29 04:58:42;;;;;;;;;;;;;;;22.06;72.44;100469.31;4942407;28;102316;-91
2021/08/29 05:01:08;;;;;;;;;;;;;;;22.06;72.44;100467.34;4951675;28;102734;-87
2021/08/29 05:03:34;;;;;;;;;;;;;;;22.06;72.58;100466.53;4942254;28;102171;-87
2021/08/29 05:06:01;;;;;;;;;;;;;;;22.06;72.58;100461.78;4938305;28;102164;-87
2021/08/29 05:08:27;;;;;;;;;;;;;;;22.07;72.76;100459.84;4938724;28;102121;-87
2021/08/29 05:11:00;;;;;;;;;;;;;;;22.08;72.54;100461.44;4931812;28;102712;-87
2021/08/29 05:13:27;;;;;;;;;;;;;;;22.07;72.54;100443.22;4939828;28;102168;-86
2021/08/29 05:15:58;;;;;;;;;;;;;;;22.08;72.64;100442.06;4935485;28;102392;-86
2021/08/29 05:18:25;;;;;;;;;;;;;;;22.07;72.62;100437.69;4938663;28;102131;-86
2021/08/29 05:20:52;;;;;;;;;;;;;;;22.08;72.95;100433.75;4938957;28;102661;-86
2021/08/29 05:23:18;;;;;;;;;;;;;;;22.09;72.52;100435.34;4927405;28;102112;-86
2021/08/29 05:25:54;;;;;;;;;;;;;;;22.08;72.79;100425.44;4951839;28;102285;-86
2021/08/29 05:28:22;;;;;;;;;;;;;;;22.09;72.50;100421.50;4939128;28;101887;-86
2021/08/29 05:30:48;;;;;;;;;;;;;;;22.10;72.47;100412.00;4953475;28;102758;-86
2021/08/29 05:33:15;;;;;;;;;;;;;;;22.10;72.71;100414.78;4941104;28;102134;-86
2021/08/29 05:35:41;;;;;;;;;;;;;;;22.11;72.12;100415.56;4941333;28;102072;-86
2021/08/29 05:38:08;;;;;;;;;;;;;;;22.11;72.63;100416.41;4955334;28;102205;-86
2021/08/29 05:40:34;;;;;;;;;;;;;;;22.11;72.31;100419.19;4937665;28;102781;-86
2021/08/29 05:43:01;;;;;;;;;;;;;;;22.12;72.58;100423.56;4936581;28;102401;-87
2021/08/29 05:45:28;;;;;;;;;;;;;;;22.13;72.30;100424.34;4938721;28;102023;-86
2021/08/29 05:47:55;;;;;;;;;;;;;;;22.13;72.42;100430.69;4936671;28;102265;-86
2021/08/29 05:50:22;;;;;;;;;;;;;;;22.14;72.49;100437.88;4950849;28;103844;-86
2021/08/29 05:52:48;;;;;;;;;;;;;;;22.15;72.40;100439.50;4940604;28;102162;-86
2021/08/29 05:55:14;;;;;;;;;;;;;;;22.16;72.04;100429.22;4932449;28;102522;-86
2021/08/29 05:57:41;;;;;;;;;;;;;;;22.18;72.25;100433.25;4936254;28;102153;-86
2021/08/29 06:00:07;;;;;;;;;;;;;;;22.18;72.20;100427.72;4942109;28;102717;-86
2021/08/29 06:02:35;;;;;;;;;;;;;;;22.19;72.43;100421.00;4932267;28;102476;-86
2021/08/29 06:05:01;;;;;;;;;;;;;;;22.21;72.41;100423.41;4936255;28;102152;-86
2021/08/29 06:07:28;;;;;;;;;;;;;;;22.21;72.36;100409.53;4933549;28;102222;-86
2021/08/29 06:09:54;;;;;;;;;;;;;;;22.22;72.41;100417.50;4951504;28;102717;-84
2021/08/29 06:12:20;;;;;;;;;;;;;;;22.22;72.33;100406.41;4934537;28;102258;-86
2021/08/29 06:14:46;;;;;;;;;;;;;;;22.25;72.08;100405.72;4952430;28;102408;-85
2021/08/29 06:17:13;;;;;;;;;;;;;;;22.26;72.04;100407.31;4935316;28;102321;-85
2021/08/29 06:19:40;;;;;;;;;;;;;;;22.26;72.25;100393.44;4934169;28;102795;-88
2021/08/29 06:22:06;;;;;;;;;;;;;;;22.27;72.06;100397.81;4936313;28;102107;-89
2021/08/29 06:24:35;;;;;;;;;;;;;;;22.28;72.15;100387.53;4948088;28;102331;-89
2021/08/29 06:27:01;;;;;;;;;;;;;;;22.29;72.16;100387.19;4934134;28;102188;-89
2021/08/29 06:29:27;;;;;;;;;;;;;;;22.29;72.03;100389.97;4939189;28;102705;-90
2021/08/29 06:31:54;;;;;;;;;;;;;;;22.30;72.07;100397.13;4934159;28;102134;-89
2021/08/29 06:34:20;;;;;;;;;;;;;;;22.31;72.04;100395.94;4934433;28;102127;-90
2021/08/29 06:36:48;;;;;;;;;;;;;;;22.32;72.24;100399.50;4940232;28;102294;-91
2021/08/29 06:39:15;;;;;;;;;;;;;;;22.33;72.23;100384.50;4934839;28;103174;-90
2021/08/29 06:41:41;;;;;;;;;;;;;;;22.34;71.98;100385.31;4935940;28;102353;-86
2021/08/29 06:44:08;;;;;;;;;;;;;;;22.35;72.31;100386.91;4936495;28;101953;-86
2021/08/29 06:46:34;;;;;;;;;;;;;;;22.36;72.21;100380.19;4944428;28;102243;-90
2021/08/29 06:49:01;;;;;;;;;;;;;;;22.36;72.30;100388.50;4943574;28;104101;-90
2021/08/29 06:51:27;;;;;;;;;;;;;;;22.37;72.19;100368.75;4939869;28;102183;-87
2021/08/29 06:53:54;;;;;;;;;;;;;;;22.37;71.97;100377.09;4939551;28;102247;-86
2021/08/29 06:56:21;;;;;;;;;;;;;;;22.38;71.95;100375.09;4943233;28;102115;-86
2021/08/29 06:58:47;;;;;;;;;;;;;;;22.38;72.14;100369.56;4941360;28;102782;-87
2021/08/29 07:01:13;;;;;;;;;;;;;;;22.38;72.15;100373.13;4942537;28;102076;-86
2021/08/29 07:03:39;;;;;;;;;;;;;;;22.39;71.96;100369.19;4941612;28;102121;-86
2021/08/29 07:06:09;;;;;;;;;;;;;;;22.39;72.11;100365.63;4943293;28;102105;-86
2021/08/29 07:08:36;;;;;;;;;;;;;;;22.41;71.94;100360.53;4957534;28;103896;-86
2021/08/29 07:11:04;;;;;;;;;;;;;;;22.40;71.98;100361.72;4943861;28;102012;-86
2021/08/29 07:13:33;;;;;;;;;;;;;;;22.40;72.04;100367.25;4942561;28;102189;-86
2021/08/29 07:16:00;;;;;;;;;;;;;;;22.40;71.82;100368.06;4942744;28;102153;-86
2021/08/29 07:18:26;;;;;;;;;;;;;;;22.42;72.13;100367.69;4943821;28;102730;-86
2021/08/29 07:20:52;;;;;;;;;;;;;;;22.41;72.11;100360.53;4940465;28;101952;-86
2021/08/29 07:23:19;;;;;;;;;;;;;;;22.41;nan;100343.91;4938141;28;102119;-86
2021/08/29 07:25:45;;;;;;;;;;;;;;;22.41;72.16;100341.91;4943625;28;102146;-86
2021/08/29 07:28:13;;;;;;;;;;;;;;;22.41;71.87;100330.84;4942733;28;102757;-86
2021/08/29 07:30:39;;;;;;;;;;;;;;;22.43;71.89;100330.47;4941843;28;102404;-86
2021/08/29 07:33:06;;;;;;;;;;;;;;;22.42;71.82;100326.09;4942069;28;101892;-86
2021/08/29 07:35:32;;;;;;;;;;;;;;;22.43;71.95;100327.69;4942961;28;102207;-86
2021/08/29 07:37:58;;;;;;;;;;;;;;;22.42;71.92;100320.53;4939878;28;102373;-85
2021/08/29 07:40:24;;;;;;;;;;;;;;;22.43;72.00;100322.16;4942520;28;102369;-86
2021/08/29 07:42:51;;;;;;;;;;;;;;;22.42;71.81;100315.78;4941609;28;102211;-86
2021/08/29 07:45:19;;;;;;;;;;;;;;;22.42;71.99;100320.53;4941679;28;102290;-86
2021/08/29 07:47:52;;;;;;;;;;;;;;;22.42;71.91;100321.34;4941881;28;102809;-86
2021/08/29 07:50:18;;;;;;;;;;;;;;;22.42;71.91;100321.34;4941082;28;102098;-86
2021/08/29 07:52:44;;;;;;;;;;;;;;;22.43;71.99;100313.81;4939008;28;102100;-86
2021/08/29 07:55:11;;;;;;;64.53;15.70;;;;;;;22.83;70.70;100312.72;4919828;23;102474;-49
2021/08/29 07:57:38;;;;;;;20.13;13.45;;;;;;;22.55;71.42;100314.53;4877278;28;103279;-49
2021/08/29 08:00:06;;;;;;;22.27;13.35;;;;;;;22.53;71.60;100321.59;4880507;28;102865;-49
2021/08/29 08:02:34;;;;;;;16.90;12.80;;;;;;;22.53;71.59;100327.13;4880644;28;102678;-49
2021/08/29 08:05:01;;;;;;;13.87;11.27;;;;;;;22.53;71.79;100332.69;4886879;28;102405;-48
2021/08/29 08:07:27;;;;;;;12.43;11.27;;;;;;;22.52;71.78;100347.72;4883165;28;104716;-49
2021/08/29 08:09:54;;;;;;;13.02;11.68;;;;;;;22.52;71.74;100342.97;4881731;28;102439;-49
2021/08/29 08:12:20;;;;;;;13.25;11.88;;;;;;;22.52;71.80;100342.16;4885837;28;102278;-48
2021/08/29 08:14:47;;;;;;;13.23;11.45;;;;;;;22.53;71.86;100332.69;4871800;28;102182;-49
2021/08/29 08:17:13;;;;;;;46.83;12.77;;;;;;;22.52;71.86;100336.63;4868790;28;103819;-49
2021/08/29 08:19:41;;;;;;;12.82;11.63;;;;;;;22.52;71.45;100325.53;4866245;28;102584;-48
2021/08/29 08:22:08;;;;;;;12.97;11.63;;;;;;;22.52;71.79;100331.88;4869252;28;102105;-50
2021/08/29 08:24:35;;;;;;;12.63;11.55;;;;;;;22.51;71.65;100313.63;4862644;28;102242;-48
2021/08/29 08:27:02;;;;;;;14.00;12.70;;;;;;;22.52;71.75;100314.44;4867874;28;104155;-49
2021/08/29 08:29:29;;;;;;;13.45;12.15;;;;;;;22.53;71.67;100310.50;4846607;28;102418;-49
2021/08/29 08:31:56;;;;;;;30.10;12.25;;;;;;;22.52;71.78;100314.44;4868804;28;102198;-48
2021/08/29 08:34:22;;;;;;;20.33;13.15;;;;;;;22.52;71.55;100309.69;4872229;28;102498;-48
2021/08/29 08:36:51;;;;;;;22.95;12.25;;;;;;;22.53;71.74;100324.34;4867771;28;103940;-48
2021/08/29 08:39:17;;;;;;;15.88;13.45;;;;;;;22.53;71.70;100324.34;4860059;28;102240;-48
2021/08/29 08:41:44;;;;;;;14.10;12.70;;;;;;;22.53;71.60;100324.34;4869323;28;102827;-49
2021/08/29 08:44:11;;;;;;;17.70;14.90;;;;;;;22.53;72.05;100338.22;4867283;28;102423;-49
2021/08/29 08:46:38;;;;;;;15.85;14.20;;;;;;;22.52;71.82;100336.63;4865740;28;104060;-48
2021/08/29 08:49:05;;;;;;;15.05;13.65;;;;;;;22.52;71.72;100333.84;4866953;28;102513;-49
2021/08/29 08:51:37;;;;;;;13.85;12.23;;;;;;;22.52;71.37;100339.41;4871165;28;102622;-51
2021/08/29 08:54:08;;;;;;;14.27;12.85;;;;;;;22.52;71.87;100342.16;4875368;28;102898;-50
2021/08/29 08:56:37;;;;;;;15.50;14.00;;;;;;;22.52;71.75;100336.63;4865422;28;104096;-50
2021/08/29 08:59:05;;;;;;;14.00;12.70;;;;;;;22.52;71.88;100342.97;4864015;28;103432;-49
2021/08/29 09:01:32;;;;;;;15.35;13.88;;;;;;;22.52;71.56;100336.63;4868095;28;102575;-49
2021/08/29 09:03:59;;;;;;;13.63;12.23;;;;;;;22.52;71.78;100336.63;4873263;28;102678;-51
2021/08/29 09:06:25;;;;;;;12.82;11.60;;;;;;;22.52;71.66;100331.06;4859973;28;103926;-49
2021/08/29 09:08:53;;;;;;;13.55;12.25;;;;;;;22.51;71.74;100329.47;4865358;28;102909;-48
2021/08/29 09:11:21;;;;;;;14.45;13.15;;;;;;;22.52;71.74;100333.84;4868682;28;102717;-49
2021/08/29 09:13:56;;;;;;;14.77;13.35;;;;;;;22.52;71.77;100325.53;4870341;28;102098;-48
2021/08/29 09:16:25;;;;;;;14.02;12.63;;;;;;;22.51;71.64;100315.63;4863451;28;103550;-49
2021/08/29 09:18:55;;;;;;;14.43;13.05;;;;;;;22.52;71.86;100306.91;4868073;28;103334;-51
2021/08/29 09:21:23;;;;;;;13.45;12.23;;;;;;;22.53;71.84;100304.94;4866922;28;102384;-48
2021/08/29 09:23:51;;;;;;;14.68;13.25;;;;;;;22.52;71.77;100317.22;4876697;28;102763;-48
2021/08/29 09:26:19;;;;;;;14.50;12.98;;;;;;;22.52;71.61;100325.53;4864924;28;103917;-49
2021/08/29 09:28:50;;;;;;;14.13;12.77;;;;;;;22.52;71.70;100325.53;4865776;28;102413;-48
2021/08/29 09:31:19;;;;;;;15.02;13.63;;;;;;;22.53;72.00;100327.13;4867265;28;102489;-48
2021/08/29 09:33:58;;;;;;;14.80;13.30;;;;;;;22.53;71.69;100321.59;4868383;28;102853;-48
2021/08/29 09:36:32;;;;;;;14.90;13.40;;;;;;;22.53;71.90;100321.59;4869283;28;103851;-48
2021/08/29 09:39:12;;;;;;;15.82;14.20;;;;;;;22.55;71.99;100314.53;4873408;28;102167;-49
2021/08/29 09:41:39;;;;;;;14.77;13.30;;;;;;;22.54;71.80;100317.66;4873781;28;102425;-49
2021/08/29 09:44:11;;;;;;;16.08;14.57;;;;;;;22.56;71.79;100309.78;4871088;28;102236;-47
2021/08/29 09:46:54;;;;;;;16.20;14.40;;;;;;;22.56;71.74;100304.22;4862496;28;103983;-48
2021/08/29 09:49:25;;;;;;;17.35;15.55;;;;;;;22.57;71.91;100302.25;4871752;28;102137;-50
2021/08/29 09:51:53;;;;;;;16.38;14.77;;;;;;;22.56;71.79;100298.69;4869487;28;102568;-48
2021/08/29 09:54:28;;;;;;;16.17;14.52;;;;;;;22.58;72.01;100296.38;4871479;28;102183;-48
2021/08/29 09:56:55;;;;;;;16.73;14.00;;;;;;;22.61;71.63;100300.34;4872007;28;104147;-48
2021/08/29 10:02:20;;;;;;;27.17;15.98;;;;;;;22.62;71.97;100291.69;5064520;27;102285;-50
2021/08/29 10:04:47;;;;;;;24.45;15.63;;;;;;;22.63;71.61;100286.94;5066865;27;102056;-49
2021/08/29 10:07:16;;;;;;;27.80;15.15;;;;;;;22.67;71.05;100299.72;5056992;27;103845;-49
2021/08/29 10:09:44;;;;;;;26.17;15.15;;;;;;;22.74;70.48;100290.75;5064035;27;104482;-49
2021/08/29 10:12:12;;;;;;;22.98;16.15;;;;;;;22.76;70.21;100286.44;5071845;27;104852;-50
2021/08/29 10:14:41;;;;;;;20.27;14.85;;;;;;;22.78;70.41;100284.09;5080657;27;102680;-50
2021/08/29 10:17:09;;;;;;;25.30;14.90;;;;;;;22.79;70.14;100285.72;5082134;27;104066;-50
2021/08/29 10:19:39;;;;;;;27.60;15.25;;;;;;;22.82;69.57;100286.94;5085930;27;102106;-49
2021/08/29 10:22:07;;;;;;;20.20;14.55;;;;;;;22.85;69.57;100290.97;5071514;27;102074;-49
2021/08/29 10:24:35;;;;;;;17.92;14.48;;;;;;;22.85;69.85;100283.44;5076145;27;102627;-50
2021/08/29 10:27:05;;;;;;;21.05;14.60;;;;;;;22.85;69.69;100272.34;5060250;27;104003;-49
2021/08/29 10:29:39;;;;;;;16.55;13.50;;;;;;;22.86;68.95;100279.50;5081376;27;102194;-49
2021/08/29 10:32:18;;;;;;;17.77;14.38;;;;;;;22.87;68.61;100270.03;5081332;27;102692;-50
2021/08/29 10:34:47;;;;;;;18.70;13.98;;;;;;;22.89;69.20;100277.97;5084475;27;102684;-49
2021/08/29 10:37:13;;;;;;;;;;;;;;;22.90;68.62;100263.75;5083328;27;104385;-49
2021/08/29 10:39:40;;;;;;;17.40;13.48;;;;;;;22.92;69.00;100266.19;5077593;27;102634;-49
2021/08/29 10:42:10;;;;;;;20.40;13.13;;;;;;;22.92;68.84;100263.41;5073657;27;102126;-49
2021/08/29 10:44:37;;;;;;;20.45;14.63;;;;;;;22.94;68.67;100263.84;5071162;27;102474;-49
2021/08/29 10:47:05;;;;;;;22.65;15.65;;;;;;;22.98;68.70;100259.16;5074147;27;103584;-49
2021/08/29 10:49:34;;;;;;;20.05;14.15;;;;;;;23.00;68.58;100263.16;5081528;27;102993;-49
2021/08/29 10:52:04;;;;;;;22.58;14.48;;;;;;;23.02;68.64;100254.50;5083055;27;102264;-49
2021/08/29 10:54:31;;;;;;;16.73;14.73;;;;;;;23.05;68.68;100253.75;5082051;27;102607;-49
2021/08/29 10:56:58;;;;;;;19.50;15.23;;;;;;;23.06;68.54;100254.56;5081973;27;103259;-49
2021/08/29 10:59:28;;;;;;;21.13;15.45;;;;;;;23.08;68.39;100253.03;5087089;27;102632;-51
2021/08/29 11:02:10;;;;;;;20.73;14.85;;;;;;;23.11;68.02;100246.72;5082630;27;102572;-50
2021/08/29 11:04:47;;;;;;;17.05;14.75;;;;;;;23.12;68.63;100248.34;5082243;27;102170;-50
2021/08/29 11:07:52;;;;;;;17.75;15.45;;;;;;;23.12;68.43;100248.34;5077110;27;104421;-49
2021/08/29 11:10:45;;;;;;;17.48;15.75;;;;;;;23.12;68.91;100242.78;5082258;27;102888;-50
2021/08/29 11:13:38;;;;;;;17.27;15.52;;;;;;;23.13;68.89;100233.28;5073726;27;102159;-50
2021/08/29 11:16:22;;;;;;;17.13;15.52;;;;;;;23.12;68.90;100237.25;5060233;27;102748;-50
2021/08/29 11:19:13;;;;;;;18.27;15.32;;;;;;;23.12;68.98;100231.69;5067886;27;103986;-49
2021/08/29 11:22:14;;;;;;;20.13;15.65;;;;;;;23.12;68.98;100231.69;5070153;27;102125;-49
2021/08/29 11:25:02;;;;;;;22.02;16.48;;;;;;;23.12;69.02;100237.25;5070932;27;102389;-49
2021/08/29 11:27:48;;;;;;;17.40;15.60;;;;;;;23.12;69.11;100231.69;5066623;27;103964;-49
2021/08/29 11:30:17;;;;;;;17.17;15.50;;;;;;;23.12;69.41;100237.25;5063797;27;103950;-50
2021/08/29 11:32:46;;;;;;;18.33;16.25;;;;;;;23.11;69.43;100235.63;5069081;27;102346;-49
2021/08/29 11:35:14;;;;;;;17.77;16.02;;;;;;;23.11;69.37;100243.94;5068369;27;102403;-49
2021/08/29 11:37:43;;;;;;;17.60;15.88;;;;;;;23.10;69.28;100234.03;5066528;27;102275;-50
2021/08/29 11:40:12;;;;;;;18.88;15.82;;;;;;;23.10;69.32;100242.34;5062656;27;103352;-50
2021/08/29 11:42:40;;;;;;;17.55;15.63;;;;;;;23.10;69.42;100227.66;5063299;27;102594;-49
2021/08/29 11:45:23;;;;;;;17.67;15.88;;;;;;;23.09;69.22;100232.44;5063688;27;102364;-50
2021/08/29 11:47:49;;;;;;;16.63;15.10;;;;;;;23.09;69.50;100235.19;5044051;27;102644;-49
2021/08/29 11:50:21;;;;;;;17.38;15.57;;;;;;;23.08;69.37;100236.38;5064450;27;103610;-49
2021/08/29 11:52:48;;;;;;;17.83;16.13;;;;;;;23.08;69.47;100224.44;5062420;27;102537;-49
2021/08/29 11:55:15;;;;;;;17.10;15.40;;;;;;;23.08;69.21;100224.44;5065420;27;102241;-49
2021/08/29 11:57:49;;;;;;;15.80;14.40;;;;;;;23.07;69.42;100218.09;5080028;27;102737;-49
2021/08/29 12:00:20;;;;;;;16.88;15.07;;;;;;;23.07;69.55;100225.63;5081757;27;102986;-51
2021/08/29 12:02:47;;;;;;;16.42;14.73;;;;;;;23.06;69.73;100213.72;5087036;27;102351;-50
2021/08/29 12:05:16;;;;;;;15.95;14.55;;;;;;;23.07;69.67;100218.09;5080593;27;102785;-50